sensor_id;sensor_type;location;lat;lon;timestamp;P1;durP1;ratioP1;P2;durP2;ratioP2
3815;SDS011;1923;48.154;11.536;2023-03-11T00:00:24;1.40;;;1.30;;
3815;SDS011;1923;48.154;11.536;2023-03-11T00:02:54;1.30;;;1.20;;
3815;SDS011;1923;48.154;11.536;2023-03-11T00:05:26;2.50;;;1.37;;
3815;SDS011;1923;48.154;11.536;2023-03-11T00:07:56;1.70;;;1.60;;
3815;SDS011;1923;48.154;11.536;2023-03-11T00:10:25;1.90;;;1.70;;
3815;SDS011;1923;48.154;11.536;2023-03-11T00:12:55;1.97;;;1.37;;
3815;SDS011;1923;48.154;11.536;2023-03-11T00:15:24;1.70;;;1.60;;
3815;SDS011;1923;48.154;11.536;2023-03-11T00:17:52;1.50;;;1.40;;
3815;SDS011;1923;48.154;11.536;2023-03-11T00:20:22;1.60;;;1.50;;
3815;SDS011;1923;48.154;11.536;2023-03-11T00:22:53;1.40;;;1.30;;
3815;SDS011;1923;48.154;11.536;2023-03-11T00:25:23;1.63;;;1.43;;
3815;SDS011;1923;48.154;11.536;2023-03-11T00:27:52;1.40;;;1.10;;
3815;SDS011;1923;48.154;11.536;2023-03-11T00:30:21;1.20;;;1.10;;
3815;SDS011;1923;48.154;11.536;2023-03-11T00:32:51;1.47;;;1.37;;
3815;SDS011;1923;48.154;11.536;2023-03-11T00:35:22;1.63;;;1.50;;
3815;SDS011;1923;48.154;11.536;2023-03-11T00:37:52;2.00;;;1.37;;
3815;SDS011;1923;48.154;11.536;2023-03-11T00:40:23;1.37;;;1.27;;
3815;SDS011;1923;48.154;11.536;2023-03-11T00:42:52;3.73;;;1.70;;
3815;SDS011;1923;48.154;11.536;2023-03-11T00:45:21;2.07;;;1.47;;
3815;SDS011;1923;48.154;11.536;2023-03-11T00:47:50;2.07;;;1.20;;
3815;SDS011;1923;48.154;11.536;2023-03-11T00:50:20;1.87;;;1.10;;
3815;SDS011;1923;48.154;11.536;2023-03-11T00:52:49;1.87;;;1.30;;
3815;SDS011;1923;48.154;11.536;2023-03-11T00:55:21;1.47;;;1.37;;
3815;SDS011;1923;48.154;11.536;2023-03-11T00:57:50;1.60;;;1.47;;
3815;SDS011;1923;48.154;11.536;2023-03-11T01:00:20;1.40;;;1.30;;
3815;SDS011;1923;48.154;11.536;2023-03-11T01:02:50;1.57;;;1.47;;
3815;SDS011;1923;48.154;11.536;2023-03-11T08:54:16;1.87;;;1.60;;
3815;SDS011;1923;48.154;11.536;2023-03-11T08:56:45;2.80;;;1.60;;
3815;SDS011;1923;48.154;11.536;2023-03-11T08:59:14;2.50;;;1.50;;
3815;SDS011;1923;48.154;11.536;2023-03-11T09:01:42;4.80;;;1.67;;
3815;SDS011;1923;48.154;11.536;2023-03-11T09:04:10;2.87;;;1.73;;
3815;SDS011;1923;48.154;11.536;2023-03-11T09:06:40;2.33;;;1.63;;
3815;SDS011;1923;48.154;11.536;2023-03-11T09:09:11;1.20;;;1.10;;
3815;SDS011;1923;48.154;11.536;2023-03-11T09:11:40;1.87;;;1.30;;
3815;SDS011;1923;48.154;11.536;2023-03-11T09:14:08;1.90;;;1.20;;
3815;SDS011;1923;48.154;11.536;2023-03-11T09:16:37;1.40;;;1.10;;
3815;SDS011;1923;48.154;11.536;2023-03-11T09:19:06;0.93;;;0.67;;
3815;SDS011;1923;48.154;11.536;2023-03-11T09:21:35;2.17;;;1.10;;
3815;SDS011;1923;48.154;11.536;2023-03-11T09:24:04;1.93;;;1.10;;
3815;SDS011;1923;48.154;11.536;2023-03-11T09:26:33;1.17;;;1.07;;
3815;SDS011;1923;48.154;11.536;2023-03-11T09:29:03;4.70;;;1.00;;
3815;SDS011;1923;48.154;11.536;2023-03-11T09:31:31;3.47;;;1.17;;
3815;SDS011;1923;48.154;11.536;2023-03-11T09:34:00;2.20;;;1.57;;
3815;SDS011;1923;48.154;11.536;2023-03-11T09:36:28;4.23;;;1.40;;
3815;SDS011;1923;48.154;11.536;2023-03-11T09:38:56;2.43;;;1.90;;
3815;SDS011;1923;48.154;11.536;2023-03-11T09:41:26;2.40;;;1.30;;
3815;SDS011;1923;48.154;11.536;2023-03-11T09:44:07;1.47;;;1.03;;
3815;SDS011;1923;48.154;11.536;2023-03-11T09:49:45;3.23;;;1.10;;
3815;SDS011;1923;48.154;11.536;2023-03-11T09:52:26;2.00;;;0.93;;
3815;SDS011;1923;48.154;11.536;2023-03-11T09:54:59;6.20;;;0.90;;
3815;SDS011;1923;48.154;11.536;2023-03-11T09:57:30;2.70;;;0.93;;
3815;SDS011;1923;48.154;11.536;2023-03-11T10:00:04;0.83;;;0.83;;
3815;SDS011;1923;48.154;11.536;2023-03-11T10:02:33;1.37;;;0.70;;
3815;SDS011;1923;48.154;11.536;2023-03-11T10:05:05;3.87;;;1.23;;
3815;SDS011;1923;48.154;11.536;2023-03-11T10:07:40;2.40;;;1.03;;
3815;SDS011;1923;48.154;11.536;2023-03-11T10:10:13;4.27;;;2.07;;
3815;SDS011;1923;48.154;11.536;2023-03-11T10:12:46;2.10;;;1.43;;
3815;SDS011;1923;48.154;11.536;2023-03-11T10:15:21;3.70;;;1.13;;
3815;SDS011;1923;48.154;11.536;2023-03-11T10:17:58;3.03;;;1.07;;
3815;SDS011;1923;48.154;11.536;2023-03-11T10:20:41;1.90;;;0.93;;
3815;SDS011;1923;48.154;11.536;2023-03-11T10:23:19;2.70;;;1.10;;
3815;SDS011;1923;48.154;11.536;2023-03-11T10:25:54;2.23;;;1.30;;
3815;SDS011;1923;48.154;11.536;2023-03-11T10:28:27;2.70;;;0.70;;
3815;SDS011;1923;48.154;11.536;2023-03-11T10:31:02;1.98;;;0.80;;
3815;SDS011;1923;48.154;11.536;2023-03-11T10:33:44;4.40;;;1.10;;
3815;SDS011;1923;48.154;11.536;2023-03-11T10:36:17;1.00;;;0.77;;
3815;SDS011;1923;48.154;11.536;2023-03-11T10:38:50;2.10;;;1.00;;
3815;SDS011;1923;48.154;11.536;2023-03-11T10:41:20;2.10;;;0.97;;
3815;SDS011;1923;48.154;11.536;2023-03-11T10:43:56;1.20;;;1.00;;
3815;SDS011;1923;48.154;11.536;2023-03-11T10:46:31;1.30;;;0.80;;
3815;SDS011;1923;48.154;11.536;2023-03-11T10:48:59;2.17;;;0.90;;
3815;SDS011;1923;48.154;11.536;2023-03-11T10:51:30;2.17;;;1.10;;
3815;SDS011;1923;48.154;11.536;2023-03-11T10:54:01;1.33;;;1.13;;
3815;SDS011;1923;48.154;11.536;2023-03-11T10:56:31;2.53;;;1.17;;
3815;SDS011;1923;48.154;11.536;2023-03-11T10:59:00;0.97;;;0.90;;
3815;SDS011;1923;48.154;11.536;2023-03-11T11:01:31;4.93;;;1.40;;
3815;SDS011;1923;48.154;11.536;2023-03-11T11:04:00;2.83;;;1.20;;
3815;SDS011;1923;48.154;11.536;2023-03-11T11:06:30;5.10;;;1.23;;
3815;SDS011;1923;48.154;11.536;2023-03-11T11:09:06;2.73;;;2.53;;
3815;SDS011;1923;48.154;11.536;2023-03-11T11:11:41;2.43;;;1.20;;
3815;SDS011;1923;48.154;11.536;2023-03-11T11:14:39;1.60;;;1.20;;
3815;SDS011;1923;48.154;11.536;2023-03-11T11:17:16;2.03;;;1.53;;
3815;SDS011;1923;48.154;11.536;2023-03-11T11:19:46;3.10;;;1.80;;
3815;SDS011;1923;48.154;11.536;2023-03-11T11:22:16;1.67;;;1.10;;
3815;SDS011;1923;48.154;11.536;2023-03-11T11:24:46;1.23;;;1.13;;
3815;SDS011;1923;48.154;11.536;2023-03-11T11:27:17;2.83;;;1.40;;
3815;SDS011;1923;48.154;11.536;2023-03-11T11:30:01;5.23;;;1.13;;
3815;SDS011;1923;48.154;11.536;2023-03-11T11:32:39;3.67;;;1.20;;
3815;SDS011;1923;48.154;11.536;2023-03-11T11:35:09;1.83;;;1.63;;
3815;SDS011;1923;48.154;11.536;2023-03-11T11:37:41;2.40;;;1.50;;
3815;SDS011;1923;48.154;11.536;2023-03-11T11:40:25;2.57;;;1.37;;
3815;SDS011;1923;48.154;11.536;2023-03-11T11:42:56;1.83;;;1.47;;
3815;SDS011;1923;48.154;11.536;2023-03-11T11:45:33;1.80;;;1.40;;
3815;SDS011;1923;48.154;11.536;2023-03-11T11:48:10;1.70;;;1.40;;
3815;SDS011;1923;48.154;11.536;2023-03-11T11:50:44;3.63;;;1.70;;
3815;SDS011;1923;48.154;11.536;2023-03-11T11:53:27;1.70;;;1.40;;
3815;SDS011;1923;48.154;11.536;2023-03-11T11:56:01;2.60;;;1.53;;
3815;SDS011;1923;48.154;11.536;2023-03-11T11:58:29;1.20;;;1.10;;
3815;SDS011;1923;48.154;11.536;2023-03-11T12:01:01;1.43;;;1.30;;
3815;SDS011;1923;48.154;11.536;2023-03-11T12:03:46;1.70;;;1.10;;
3815;SDS011;1923;48.154;11.536;2023-03-11T12:06:34;1.50;;;1.40;;
3815;SDS011;1923;48.154;11.536;2023-03-11T12:09:10;1.60;;;1.50;;
3815;SDS011;1923;48.154;11.536;2023-03-11T12:11:50;2.47;;;1.60;;
3815;SDS011;1923;48.154;11.536;2023-03-11T12:14:24;4.90;;;1.37;;
3815;SDS011;1923;48.154;11.536;2023-03-11T12:16:56;4.80;;;1.50;;
3815;SDS011;1923;48.154;11.536;2023-03-11T12:19:38;3.93;;;2.20;;
3815;SDS011;1923;48.154;11.536;2023-03-11T12:22:17;8.50;;;5.60;;
3815;SDS011;1923;48.154;11.536;2023-03-11T12:27:58;3.90;;;1.83;;
3815;SDS011;1923;48.154;11.536;2023-03-11T12:30:35;1.90;;;1.80;;
3815;SDS011;1923;48.154;11.536;2023-03-11T12:33:11;1.60;;;1.50;;
3815;SDS011;1923;48.154;11.536;2023-03-11T12:35:48;8.30;;;1.87;;
3815;SDS011;1923;48.154;11.536;2023-03-11T12:38:24;2.03;;;1.90;;
3815;SDS011;1923;48.154;11.536;2023-03-11T12:40:59;2.87;;;1.73;;
3815;SDS011;1923;48.154;11.536;2023-03-11T12:49:28;4.33;;;1.80;;
3815;SDS011;1923;48.154;11.536;2023-03-11T12:52:02;2.40;;;1.50;;
3815;SDS011;1923;48.154;11.536;2023-03-11T12:54:32;1.83;;;1.73;;
3815;SDS011;1923;48.154;11.536;2023-03-11T12:57:02;2.90;;;1.50;;
3815;SDS011;1923;48.154;11.536;2023-03-11T12:59:48;1.53;;;1.43;;
3815;SDS011;1923;48.154;11.536;2023-03-11T13:02:55;1.27;;;1.20;;
3815;SDS011;1923;48.154;11.536;2023-03-11T13:05:58;1.50;;;1.40;;
3815;SDS011;1923;48.154;11.536;2023-03-11T13:08:34;1.90;;;1.70;;
3815;SDS011;1923;48.154;11.536;2023-03-11T13:11:32;3.43;;;1.70;;
3815;SDS011;1923;48.154;11.536;2023-03-11T13:14:08;2.23;;;1.47;;
3815;SDS011;1923;48.154;11.536;2023-03-11T13:16:50;2.23;;;1.70;;
3815;SDS011;1923;48.154;11.536;2023-03-11T13:19:34;2.47;;;2.27;;
3815;SDS011;1923;48.154;11.536;2023-03-11T13:25:34;2.33;;;1.60;;
3815;SDS011;1923;48.154;11.536;2023-03-11T13:28:12;2.30;;;1.43;;
3815;SDS011;1923;48.154;11.536;2023-03-11T13:30:55;3.57;;;1.60;;
3815;SDS011;1923;48.154;11.536;2023-03-11T13:33:32;1.50;;;1.37;;
3815;SDS011;1923;48.154;11.536;2023-03-11T13:36:14;2.17;;;1.97;;
3815;SDS011;1923;48.154;11.536;2023-03-11T13:38:57;2.27;;;2.07;;
3815;SDS011;1923;48.154;11.536;2023-03-11T13:41:44;4.43;;;1.80;;
3815;SDS011;1923;48.154;11.536;2023-03-11T13:44:15;1.57;;;1.47;;
3815;SDS011;1923;48.154;11.536;2023-03-11T13:46:52;3.10;;;1.90;;
3815;SDS011;1923;48.154;11.536;2023-03-11T13:49:29;1.57;;;1.47;;
3815;SDS011;1923;48.154;11.536;2023-03-11T13:52:02;3.50;;;1.63;;
3815;SDS011;1923;48.154;11.536;2023-03-11T13:54:38;2.60;;;1.93;;
3815;SDS011;1923;48.154;11.536;2023-03-11T13:57:24;6.30;;;2.20;;
3815;SDS011;1923;48.154;11.536;2023-03-11T13:59:55;4.20;;;1.97;;
3815;SDS011;1923;48.154;11.536;2023-03-11T14:02:24;3.87;;;1.67;;
3815;SDS011;1923;48.154;11.536;2023-03-11T14:04:55;4.37;;;2.10;;
3815;SDS011;1923;48.154;11.536;2023-03-11T14:07:29;2.23;;;2.03;;
3815;SDS011;1923;48.154;11.536;2023-03-11T14:13:11;1.60;;;1.10;;
3815;SDS011;1923;48.154;11.536;2023-03-11T14:15:44;2.70;;;1.67;;
3815;SDS011;1923;48.154;11.536;2023-03-11T14:21:06;3.40;;;1.60;;
3815;SDS011;1923;48.154;11.536;2023-03-11T14:23:40;3.50;;;1.70;;
3815;SDS011;1923;48.154;11.536;2023-03-11T14:26:12;1.87;;;1.50;;
3815;SDS011;1923;48.154;11.536;2023-03-11T14:28:43;2.03;;;1.70;;
3815;SDS011;1923;48.154;11.536;2023-03-11T14:31:21;2.20;;;1.67;;
3815;SDS011;1923;48.154;11.536;2023-03-11T14:33:56;2.50;;;1.80;;
3815;SDS011;1923;48.154;11.536;2023-03-11T14:36:30;3.60;;;2.30;;
3815;SDS011;1923;48.154;11.536;2023-03-11T14:39:20;4.00;;;1.70;;
3815;SDS011;1923;48.154;11.536;2023-03-11T14:41:53;2.63;;;1.83;;
3815;SDS011;1923;48.154;11.536;2023-03-11T14:44:27;2.00;;;1.83;;
3815;SDS011;1923;48.154;11.536;2023-03-11T14:47:02;4.73;;;2.00;;
3815;SDS011;1923;48.154;11.536;2023-03-11T14:49:35;1.90;;;1.80;;
3815;SDS011;1923;48.154;11.536;2023-03-11T14:52:07;1.83;;;1.73;;
3815;SDS011;1923;48.154;11.536;2023-03-11T14:54:40;2.13;;;1.70;;
3815;SDS011;1923;48.154;11.536;2023-03-11T14:57:10;2.33;;;2.17;;
3815;SDS011;1923;48.154;11.536;2023-03-11T14:59:47;2.33;;;2.13;;
3815;SDS011;1923;48.154;11.536;2023-03-11T15:02:29;2.27;;;2.03;;
3815;SDS011;1923;48.154;11.536;2023-03-11T15:05:05;2.03;;;1.83;;
3815;SDS011;1923;48.154;11.536;2023-03-11T15:07:37;2.90;;;1.90;;
3815;SDS011;1923;48.154;11.536;2023-03-11T15:10:06;3.70;;;2.30;;
3815;SDS011;1923;48.154;11.536;2023-03-11T15:12:36;5.57;;;2.50;;
3815;SDS011;1923;48.154;11.536;2023-03-11T15:15:25;1.50;;;1.40;;
3815;SDS011;1923;48.154;11.536;2023-03-11T15:17:55;2.43;;;1.97;;
3815;SDS011;1923;48.154;11.536;2023-03-11T15:20:25;2.67;;;2.40;;
3815;SDS011;1923;48.154;11.536;2023-03-11T15:22:56;4.57;;;2.10;;
3815;SDS011;1923;48.154;11.536;2023-03-11T15:25:27;2.90;;;2.00;;
3815;SDS011;1923;48.154;11.536;2023-03-11T15:27:57;1.90;;;1.80;;
3815;SDS011;1923;48.154;11.536;2023-03-11T15:30:28;3.47;;;2.13;;
3815;SDS011;1923;48.154;11.536;2023-03-11T15:32:57;2.40;;;2.20;;
3815;SDS011;1923;48.154;11.536;2023-03-11T15:35:26;4.17;;;2.20;;
3815;SDS011;1923;48.154;11.536;2023-03-11T15:38:12;2.43;;;2.20;;
3815;SDS011;1923;48.154;11.536;2023-03-11T15:40:50;2.30;;;2.10;;
3815;SDS011;1923;48.154;11.536;2023-03-11T15:43:24;3.53;;;1.83;;
3815;SDS011;1923;48.154;11.536;2023-03-11T15:45:56;1.90;;;1.80;;
3815;SDS011;1923;48.154;11.536;2023-03-11T15:48:26;2.43;;;2.23;;
3815;SDS011;1923;48.154;11.536;2023-03-11T15:50:57;2.20;;;1.90;;
3815;SDS011;1923;48.154;11.536;2023-03-11T15:53:26;3.35;;;1.30;;
3815;SDS011;1923;48.154;11.536;2023-03-11T15:55:56;2.53;;;2.30;;
3815;SDS011;1923;48.154;11.536;2023-03-11T15:58:33;2.13;;;1.93;;
3815;SDS011;1923;48.154;11.536;2023-03-11T16:01:04;4.07;;;2.20;;
3815;SDS011;1923;48.154;11.536;2023-03-11T16:03:32;4.63;;;2.50;;
3815;SDS011;1923;48.154;11.536;2023-03-11T16:06:00;3.17;;;2.60;;
3815;SDS011;1923;48.154;11.536;2023-03-11T16:08:28;8.00;;;2.93;;
3815;SDS011;1923;48.154;11.536;2023-03-11T16:10:57;3.23;;;2.93;;
3815;SDS011;1923;48.154;11.536;2023-03-11T16:13:25;6.23;;;2.13;;
3815;SDS011;1923;48.154;11.536;2023-03-11T16:15:53;5.63;;;2.10;;
3815;SDS011;1923;48.154;11.536;2023-03-11T16:18:23;2.53;;;2.33;;
3815;SDS011;1923;48.154;11.536;2023-03-11T16:20:51;2.97;;;2.30;;
3815;SDS011;1923;48.154;11.536;2023-03-11T16:23:21;2.60;;;2.30;;
3815;SDS011;1923;48.154;11.536;2023-03-11T16:25:51;3.77;;;1.67;;
3815;SDS011;1923;48.154;11.536;2023-03-11T16:28:23;2.50;;;1.87;;
3815;SDS011;1923;48.154;11.536;2023-03-11T16:30:51;2.33;;;2.03;;
3815;SDS011;1923;48.154;11.536;2023-03-11T16:33:19;3.55;;;2.35;;
3815;SDS011;1923;48.154;11.536;2023-03-11T16:35:49;2.17;;;1.70;;
3815;SDS011;1923;48.154;11.536;2023-03-11T16:38:17;4.87;;;2.43;;
3815;SDS011;1923;48.154;11.536;2023-03-11T16:40:51;7.10;;;2.30;;
3815;SDS011;1923;48.154;11.536;2023-03-11T16:43:23;5.67;;;2.20;;
3815;SDS011;1923;48.154;11.536;2023-03-11T16:45:51;2.42;;;1.55;;
3815;SDS011;1923;48.154;11.536;2023-03-11T16:48:20;3.60;;;2.20;;
3815;SDS011;1923;48.154;11.536;2023-03-11T16:50:49;2.97;;;2.47;;
3815;SDS011;1923;48.154;11.536;2023-03-11T16:53:17;3.00;;;1.93;;
3815;SDS011;1923;48.154;11.536;2023-03-11T16:55:46;3.13;;;2.10;;
3815;SDS011;1923;48.154;11.536;2023-03-11T16:58:14;3.33;;;1.90;;
3815;SDS011;1923;48.154;11.536;2023-03-11T17:00:42;3.83;;;2.50;;
3815;SDS011;1923;48.154;11.536;2023-03-11T17:03:11;3.30;;;2.47;;
3815;SDS011;1923;48.154;11.536;2023-03-11T17:05:39;2.53;;;2.17;;
3815;SDS011;1923;48.154;11.536;2023-03-11T17:08:09;2.90;;;2.70;;
3815;SDS011;1923;48.154;11.536;2023-03-11T17:10:39;2.63;;;2.10;;
3815;SDS011;1923;48.154;11.536;2023-03-11T17:13:10;3.30;;;2.30;;
3815;SDS011;1923;48.154;11.536;2023-03-11T17:15:44;6.70;;;2.40;;
3815;SDS011;1923;48.154;11.536;2023-03-11T17:18:12;3.03;;;2.10;;
3815;SDS011;1923;48.154;11.536;2023-03-11T17:20:40;3.40;;;2.10;;
3815;SDS011;1923;48.154;11.536;2023-03-11T17:23:11;6.10;;;2.50;;
3815;SDS011;1923;48.154;11.536;2023-03-11T17:25:39;3.40;;;2.63;;
3815;SDS011;1923;48.154;11.536;2023-03-11T17:28:08;2.53;;;2.07;;
3815;SDS011;1923;48.154;11.536;2023-03-11T17:30:39;2.20;;;2.00;;
3815;SDS011;1923;48.154;11.536;2023-03-11T17:33:08;3.17;;;2.67;;
3815;SDS011;1923;48.154;11.536;2023-03-11T17:35:37;2.40;;;2.20;;
3815;SDS011;1923;48.154;11.536;2023-03-11T17:38:06;2.20;;;2.10;;
3815;SDS011;1923;48.154;11.536;2023-03-11T17:40:35;7.13;;;2.67;;
3815;SDS011;1923;48.154;11.536;2023-03-11T17:43:04;2.60;;;2.13;;
3815;SDS011;1923;48.154;11.536;2023-03-11T17:45:33;3.10;;;2.43;;
3815;SDS011;1923;48.154;11.536;2023-03-11T17:48:01;3.07;;;2.10;;
3815;SDS011;1923;48.154;11.536;2023-03-11T17:50:29;2.70;;;2.17;;
3815;SDS011;1923;48.154;11.536;2023-03-11T17:52:57;5.67;;;2.87;;
3815;SDS011;1923;48.154;11.536;2023-03-11T17:55:25;2.47;;;2.27;;
3815;SDS011;1923;48.154;11.536;2023-03-11T17:57:54;2.70;;;2.40;;
3815;SDS011;1923;48.154;11.536;2023-03-11T18:00:22;2.83;;;2.10;;
3815;SDS011;1923;48.154;11.536;2023-03-11T18:02:50;3.83;;;3.00;;
3815;SDS011;1923;48.154;11.536;2023-03-11T18:05:19;2.90;;;2.47;;
3815;SDS011;1923;48.154;11.536;2023-03-11T18:07:47;2.90;;;2.27;;
3815;SDS011;1923;48.154;11.536;2023-03-11T18:10:15;2.80;;;2.30;;
3815;SDS011;1923;48.154;11.536;2023-03-11T18:12:44;2.40;;;2.20;;
3815;SDS011;1923;48.154;11.536;2023-03-11T18:15:14;4.50;;;2.83;;
3815;SDS011;1923;48.154;11.536;2023-03-11T18:17:45;4.03;;;2.33;;
3815;SDS011;1923;48.154;11.536;2023-03-11T18:20:13;2.72;;;2.40;;
3815;SDS011;1923;48.154;11.536;2023-03-11T18:22:42;2.60;;;2.40;;
3815;SDS011;1923;48.154;11.536;2023-03-11T18:25:12;3.37;;;2.50;;
3815;SDS011;1923;48.154;11.536;2023-03-11T18:27:40;2.60;;;1.80;;
3815;SDS011;1923;48.154;11.536;2023-03-11T18:30:09;3.00;;;2.57;;
3815;SDS011;1923;48.154;11.536;2023-03-11T18:32:39;10.57;;;3.00;;
3815;SDS011;1923;48.154;11.536;2023-03-11T18:35:08;6.13;;;2.40;;
3815;SDS011;1923;48.154;11.536;2023-03-11T18:37:39;2.80;;;2.53;;
3815;SDS011;1923;48.154;11.536;2023-03-11T18:40:08;2.60;;;2.10;;
3815;SDS011;1923;48.154;11.536;2023-03-11T18:42:37;2.27;;;1.93;;
3815;SDS011;1923;48.154;11.536;2023-03-11T18:45:05;2.77;;;2.30;;
3815;SDS011;1923;48.154;11.536;2023-03-11T18:47:35;2.40;;;2.20;;
3815;SDS011;1923;48.154;11.536;2023-03-11T18:50:05;3.20;;;2.00;;
3815;SDS011;1923;48.154;11.536;2023-03-11T18:52:33;4.00;;;2.83;;
3815;SDS011;1923;48.154;11.536;2023-03-11T18:55:01;2.72;;;2.53;;
3815;SDS011;1923;48.154;11.536;2023-03-11T18:57:29;2.27;;;2.07;;
3815;SDS011;1923;48.154;11.536;2023-03-11T18:59:58;3.50;;;2.37;;
3815;SDS011;1923;48.154;11.536;2023-03-11T19:02:26;3.60;;;1.90;;
3815;SDS011;1923;48.154;11.536;2023-03-11T19:04:55;3.10;;;2.70;;
3815;SDS011;1923;48.154;11.536;2023-03-11T19:07:24;4.50;;;2.67;;
3815;SDS011;1923;48.154;11.536;2023-03-11T19:09:54;2.60;;;2.40;;
3815;SDS011;1923;48.154;11.536;2023-03-11T19:12:22;3.00;;;2.60;;
3815;SDS011;1923;48.154;11.536;2023-03-11T19:14:54;3.67;;;2.53;;
3815;SDS011;1923;48.154;11.536;2023-03-11T19:17:22;3.77;;;2.50;;
3815;SDS011;1923;48.154;11.536;2023-03-11T19:19:50;2.90;;;2.47;;
3815;SDS011;1923;48.154;11.536;2023-03-11T19:22:19;3.40;;;2.50;;
3815;SDS011;1923;48.154;11.536;2023-03-11T19:24:48;4.93;;;2.93;;
3815;SDS011;1923;48.154;11.536;2023-03-11T19:27:16;3.47;;;2.57;;
3815;SDS011;1923;48.154;11.536;2023-03-11T19:29:44;2.90;;;2.60;;
3815;SDS011;1923;48.154;11.536;2023-03-11T19:32:12;4.60;;;2.60;;
3815;SDS011;1923;48.154;11.536;2023-03-11T19:34:40;6.63;;;2.50;;
3815;SDS011;1923;48.154;11.536;2023-03-11T19:37:08;4.60;;;2.70;;
3815;SDS011;1923;48.154;11.536;2023-03-11T19:39:36;4.23;;;2.93;;
3815;SDS011;1923;48.154;11.536;2023-03-11T19:42:06;5.53;;;3.10;;
3815;SDS011;1923;48.154;11.536;2023-03-11T19:44:34;5.73;;;2.43;;
3815;SDS011;1923;48.154;11.536;2023-03-11T19:47:02;4.40;;;2.93;;
3815;SDS011;1923;48.154;11.536;2023-03-11T19:49:30;3.73;;;2.80;;
3815;SDS011;1923;48.154;11.536;2023-03-11T19:51:58;4.67;;;3.00;;
3815;SDS011;1923;48.154;11.536;2023-03-11T19:54:26;5.83;;;3.20;;
3815;SDS011;1923;48.154;11.536;2023-03-11T19:56:54;7.27;;;2.37;;
3815;SDS011;1923;48.154;11.536;2023-03-11T19:59:24;4.30;;;3.00;;
3815;SDS011;1923;48.154;11.536;2023-03-11T20:01:52;3.43;;;3.07;;
3815;SDS011;1923;48.154;11.536;2023-03-11T20:04:20;3.97;;;2.80;;
3815;SDS011;1923;48.154;11.536;2023-03-11T20:06:48;4.20;;;2.40;;
3815;SDS011;1923;48.154;11.536;2023-03-11T20:09:16;4.20;;;2.57;;
3815;SDS011;1923;48.154;11.536;2023-03-11T20:11:45;3.33;;;2.30;;
3815;SDS011;1923;48.154;11.536;2023-03-11T20:14:14;5.40;;;2.97;;
3815;SDS011;1923;48.154;11.536;2023-03-11T20:16:43;3.93;;;2.80;;
3815;SDS011;1923;48.154;11.536;2023-03-11T20:19:11;4.63;;;2.57;;
3815;SDS011;1923;48.154;11.536;2023-03-11T20:21:39;7.73;;;2.50;;
3815;SDS011;1923;48.154;11.536;2023-03-11T20:24:10;2.40;;;2.20;;
3815;SDS011;1923;48.154;11.536;2023-03-11T20:26:39;2.43;;;2.23;;
3815;SDS011;1923;48.154;11.536;2023-03-11T20:29:07;7.10;;;2.30;;
3815;SDS011;1923;48.154;11.536;2023-03-11T20:31:35;4.30;;;2.60;;
3815;SDS011;1923;48.154;11.536;2023-03-11T20:34:05;3.83;;;2.60;;
3815;SDS011;1923;48.154;11.536;2023-03-11T20:36:33;3.00;;;1.80;;
3815;SDS011;1923;48.154;11.536;2023-03-11T20:39:01;3.27;;;2.97;;
3815;SDS011;1923;48.154;11.536;2023-03-11T20:41:33;3.43;;;2.50;;
3815;SDS011;1923;48.154;11.536;2023-03-11T20:44:03;4.57;;;2.30;;
3815;SDS011;1923;48.154;11.536;2023-03-11T20:46:32;3.73;;;2.90;;
3815;SDS011;1923;48.154;11.536;2023-03-11T20:49:01;5.50;;;2.67;;
3815;SDS011;1923;48.154;11.536;2023-03-11T20:51:31;4.17;;;3.23;;
3815;SDS011;1923;48.154;11.536;2023-03-11T20:53:59;3.10;;;2.87;;
3815;SDS011;1923;48.154;11.536;2023-03-11T20:56:27;5.50;;;2.47;;
3815;SDS011;1923;48.154;11.536;2023-03-11T20:58:56;4.70;;;2.70;;
3815;SDS011;1923;48.154;11.536;2023-03-11T21:01:27;4.93;;;3.63;;
3815;SDS011;1923;48.154;11.536;2023-03-11T21:03:57;4.47;;;3.20;;
3815;SDS011;1923;48.154;11.536;2023-03-11T21:06:28;5.80;;;3.37;;
3815;SDS011;1923;48.154;11.536;2023-03-11T21:08:59;6.97;;;3.50;;
3815;SDS011;1923;48.154;11.536;2023-03-11T21:11:30;3.50;;;3.00;;
3815;SDS011;1923;48.154;11.536;2023-03-11T21:13:59;3.87;;;3.10;;
3815;SDS011;1923;48.154;11.536;2023-03-11T21:16:27;4.60;;;3.17;;
3815;SDS011;1923;48.154;11.536;2023-03-11T21:18:55;4.23;;;3.83;;
3815;SDS011;1923;48.154;11.536;2023-03-11T21:21:24;3.87;;;2.70;;
3815;SDS011;1923;48.154;11.536;2023-03-11T21:23:52;4.67;;;2.90;;
3815;SDS011;1923;48.154;11.536;2023-03-11T21:26:22;4.13;;;2.97;;
3815;SDS011;1923;48.154;11.536;2023-03-11T21:28:50;6.67;;;3.20;;
3815;SDS011;1923;48.154;11.536;2023-03-11T21:31:19;3.20;;;2.67;;
3815;SDS011;1923;48.154;11.536;2023-03-11T21:33:50;2.73;;;2.47;;
3815;SDS011;1923;48.154;11.536;2023-03-11T21:36:20;4.37;;;3.10;;
3815;SDS011;1923;48.154;11.536;2023-03-11T21:38:49;4.03;;;2.83;;
3815;SDS011;1923;48.154;11.536;2023-03-11T21:41:18;4.13;;;3.73;;
3815;SDS011;1923;48.154;11.536;2023-03-11T21:43:50;3.73;;;2.90;;
3815;SDS011;1923;48.154;11.536;2023-03-11T21:46:19;4.27;;;3.27;;
3815;SDS011;1923;48.154;11.536;2023-03-11T21:48:49;3.70;;;2.97;;
3815;SDS011;1923;48.154;11.536;2023-03-11T21:51:18;2.60;;;2.03;;
3815;SDS011;1923;48.154;11.536;2023-03-11T21:53:47;2.57;;;2.37;;
3815;SDS011;1923;48.154;11.536;2023-03-11T21:56:15;3.83;;;2.30;;
3815;SDS011;1923;48.154;11.536;2023-03-11T21:58:43;2.63;;;2.40;;
3815;SDS011;1923;48.154;11.536;2023-03-11T22:01:12;3.60;;;2.60;;
3815;SDS011;1923;48.154;11.536;2023-03-11T22:03:41;3.03;;;2.47;;
3815;SDS011;1923;48.154;11.536;2023-03-11T22:06:10;3.20;;;2.60;;
3815;SDS011;1923;48.154;11.536;2023-03-11T22:08:39;2.43;;;2.23;;
3815;SDS011;1923;48.154;11.536;2023-03-11T22:11:08;3.80;;;3.03;;
3815;SDS011;1923;48.154;11.536;2023-03-11T22:13:39;5.00;;;2.60;;
3815;SDS011;1923;48.154;11.536;2023-03-11T22:16:07;3.23;;;2.37;;
3815;SDS011;1923;48.154;11.536;2023-03-11T22:18:37;3.13;;;2.30;;
3815;SDS011;1923;48.154;11.536;2023-03-11T22:21:05;3.23;;;2.00;;
3815;SDS011;1923;48.154;11.536;2023-03-11T22:23:36;3.20;;;2.90;;
3815;SDS011;1923;48.154;11.536;2023-03-11T22:26:04;3.03;;;2.70;;
3815;SDS011;1923;48.154;11.536;2023-03-11T22:28:32;4.78;;;2.40;;
3815;SDS011;1923;48.154;11.536;2023-03-11T22:31:04;3.00;;;2.30;;
3815;SDS011;1923;48.154;11.536;2023-03-11T22:33:33;2.97;;;2.13;;
3815;SDS011;1923;48.154;11.536;2023-03-11T22:36:03;3.30;;;2.60;;
3815;SDS011;1923;48.154;11.536;2023-03-11T22:38:33;4.70;;;2.00;;
3815;SDS011;1923;48.154;11.536;2023-03-11T22:41:03;5.80;;;3.37;;
3815;SDS011;1923;48.154;11.536;2023-03-11T22:43:33;4.18;;;2.40;;
3815;SDS011;1923;48.154;11.536;2023-03-11T22:46:01;4.20;;;3.50;;
3815;SDS011;1923;48.154;11.536;2023-03-11T22:48:30;4.30;;;2.50;;
3815;SDS011;1923;48.154;11.536;2023-03-11T22:50:59;4.97;;;3.07;;
3815;SDS011;1923;48.154;11.536;2023-03-11T22:53:30;3.07;;;2.57;;
3815;SDS011;1923;48.154;11.536;2023-03-11T22:56:07;3.40;;;2.63;;
3815;SDS011;1923;48.154;11.536;2023-03-11T22:58:45;3.10;;;2.80;;
3815;SDS011;1923;48.154;11.536;2023-03-11T23:01:13;3.60;;;2.57;;
3815;SDS011;1923;48.154;11.536;2023-03-11T23:03:42;3.10;;;2.37;;
3815;SDS011;1923;48.154;11.536;2023-03-11T23:06:11;3.20;;;2.10;;
3815;SDS011;1923;48.154;11.536;2023-03-11T23:08:43;5.90;;;2.70;;
3815;SDS011;1923;48.154;11.536;2023-03-11T23:11:13;2.90;;;2.57;;
3815;SDS011;1923;48.154;11.536;2023-03-11T23:13:43;4.57;;;2.10;;
3815;SDS011;1923;48.154;11.536;2023-03-11T23:16:11;3.10;;;2.80;;
3815;SDS011;1923;48.154;11.536;2023-03-11T23:18:41;3.70;;;2.87;;
3815;SDS011;1923;48.154;11.536;2023-03-11T23:21:14;5.70;;;2.60;;
3815;SDS011;1923;48.154;11.536;2023-03-11T23:23:44;8.50;;;2.80;;
3815;SDS011;1923;48.154;11.536;2023-03-11T23:26:13;3.00;;;2.10;;
3815;SDS011;1923;48.154;11.536;2023-03-11T23:28:43;5.50;;;3.23;;
3815;SDS011;1923;48.154;11.536;2023-03-11T23:31:13;4.07;;;3.10;;
3815;SDS011;1923;48.154;11.536;2023-03-11T23:33:42;3.37;;;2.93;;
3815;SDS011;1923;48.154;11.536;2023-03-11T23:36:12;3.37;;;3.07;;